Terminal Aerodrome Forecast
Issued by NWS

Home | Current Version | Previous Version | Text Only | Print | Product List | Glossary On
Versions: 1 2 3 4 5 6 7 8 9 10 11 12 13 14 15 16 17
000
FTUS45 KGJT 082342
TAFTEX
TAF
KTEX 082342Z 0900/0924 10007KT P6SM OVC040
     FM090600 15005KT P6SM VCSH BKN030
     FM091200 01005KT P6SM BKN035
     FM091600 23008KT P6SM BKN045=

USA.gov is the U.S. government's official web portal to all federal, state and local government web resources and services.